sensor_id;sensor_type;location;lat;lon;timestamp;temperature;humidity
32522;DHT22;18963;51.504;5.316;2023-12-29T00:00:30;10.60;99.90
32522;DHT22;18963;51.504;5.316;2023-12-29T00:02:55;10.60;99.90
32522;DHT22;18963;51.504;5.316;2023-12-29T00:05:21;10.60;99.90
32522;DHT22;18963;51.504;5.316;2023-12-29T00:07:46;10.60;99.90
32522;DHT22;18963;51.504;5.316;2023-12-29T00:10:12;10.60;99.90
32522;DHT22;18963;51.504;5.316;2023-12-29T00:12:37;10.50;99.90
32522;DHT22;18963;51.504;5.316;2023-12-29T00:15:03;10.60;99.90
32522;DHT22;18963;51.504;5.316;2023-12-29T00:17:28;10.60;99.90
32522;DHT22;18963;51.504;5.316;2023-12-29T00:19:54;10.60;99.90
32522;DHT22;18963;51.504;5.316;2023-12-29T00:22:19;10.60;99.90
32522;DHT22;18963;51.504;5.316;2023-12-29T00:24:46;10.60;99.90
32522;DHT22;18963;51.504;5.316;2023-12-29T00:27:11;10.50;99.90
32522;DHT22;18963;51.504;5.316;2023-12-29T00:29:37;10.60;99.90
32522;DHT22;18963;51.504;5.316;2023-12-29T00:32:03;10.50;99.90
32522;DHT22;18963;51.504;5.316;2023-12-29T00:34:29;10.50;99.90
32522;DHT22;18963;51.504;5.316;2023-12-29T00:36:55;10.50;99.90
32522;DHT22;18963;51.504;5.316;2023-12-29T00:39:20;10.50;99.90
32522;DHT22;18963;51.504;5.316;2023-12-29T00:41:54;10.50;99.90
32522;DHT22;18963;51.504;5.316;2023-12-29T00:44:19;10.40;99.90
32522;DHT22;18963;51.504;5.316;2023-12-29T00:46:45;10.40;99.90
32522;DHT22;18963;51.504;5.316;2023-12-29T00:49:10;10.40;99.90
32522;DHT22;18963;51.504;5.316;2023-12-29T00:51:39;10.30;99.90
32522;DHT22;18963;51.504;5.316;2023-12-29T00:54:04;10.30;99.90
32522;DHT22;18963;51.504;5.316;2023-12-29T00:56:30;10.20;99.90
32522;DHT22;18963;51.504;5.316;2023-12-29T00:58:55;10.20;99.90
32522;DHT22;18963;51.504;5.316;2023-12-29T01:01:21;10.10;99.90
32522;DHT22;18963;51.504;5.316;2023-12-29T01:03:46;10.00;99.90
32522;DHT22;18963;51.504;5.316;2023-12-29T01:06:11;10.00;99.90
32522;DHT22;18963;51.504;5.316;2023-12-29T01:08:37;10.00;99.90
32522;DHT22;18963;51.504;5.316;2023-12-29T01:11:03;9.90;99.90
32522;DHT22;18963;51.504;5.316;2023-12-29T01:13:28;9.80;99.90
32522;DHT22;18963;51.504;5.316;2023-12-29T01:15:54;9.70;99.90
32522;DHT22;18963;51.504;5.316;2023-12-29T01:18:19;9.70;99.90
32522;DHT22;18963;51.504;5.316;2023-12-29T01:20:44;9.60;99.90
32522;DHT22;18963;51.504;5.316;2023-12-29T01:23:10;9.50;99.90
32522;DHT22;18963;51.504;5.316;2023-12-29T01:25:35;9.50;99.90
32522;DHT22;18963;51.504;5.316;2023-12-29T01:28:01;9.40;99.90
32522;DHT22;18963;51.504;5.316;2023-12-29T01:30:26;9.40;99.90
32522;DHT22;18963;51.504;5.316;2023-12-29T01:32:52;9.30;99.90
32522;DHT22;18963;51.504;5.316;2023-12-29T01:35:17;9.30;99.90
32522;DHT22;18963;51.504;5.316;2023-12-29T01:37:43;9.20;99.90
32522;DHT22;18963;51.504;5.316;2023-12-29T01:40:09;9.20;99.90
32522;DHT22;18963;51.504;5.316;2023-12-29T01:42:34;9.20;99.90
32522;DHT22;18963;51.504;5.316;2023-12-29T01:45:00;9.20;99.90
32522;DHT22;18963;51.504;5.316;2023-12-29T01:47:26;9.20;99.90
32522;DHT22;18963;51.504;5.316;2023-12-29T01:49:52;9.20;99.90
32522;DHT22;18963;51.504;5.316;2023-12-29T01:52:17;9.10;99.90
32522;DHT22;18963;51.504;5.316;2023-12-29T01:54:43;9.10;99.90
32522;DHT22;18963;51.504;5.316;2023-12-29T01:57:11;9.10;99.90
32522;DHT22;18963;51.504;5.316;2023-12-29T01:59:37;9.10;99.90
32522;DHT22;18963;51.504;5.316;2023-12-29T02:02:03;9.20;99.90
32522;DHT22;18963;51.504;5.316;2023-12-29T02:04:29;9.20;99.90
32522;DHT22;18963;51.504;5.316;2023-12-29T02:06:55;9.20;99.90
32522;DHT22;18963;51.504;5.316;2023-12-29T02:09:21;9.20;99.90
32522;DHT22;18963;51.504;5.316;2023-12-29T02:11:47;9.20;99.90
32522;DHT22;18963;51.504;5.316;2023-12-29T02:14:15;9.20;99.90
32522;DHT22;18963;51.504;5.316;2023-12-29T02:19:41;9.30;99.90
32522;DHT22;18963;51.504;5.316;2023-12-29T02:22:09;9.30;99.90
32522;DHT22;18963;51.504;5.316;2023-12-29T02:24:35;9.40;99.90
32522;DHT22;18963;51.504;5.316;2023-12-29T02:30:08;9.50;99.90
32522;DHT22;18963;51.504;5.316;2023-12-29T02:32:33;9.50;99.90
32522;DHT22;18963;51.504;5.316;2023-12-29T02:34:59;9.50;99.90
32522;DHT22;18963;51.504;5.316;2023-12-29T02:37:26;9.60;99.90
32522;DHT22;18963;51.504;5.316;2023-12-29T02:39:51;9.60;99.90
32522;DHT22;18963;51.504;5.316;2023-12-29T02:42:17;9.60;99.90
32522;DHT22;18963;51.504;5.316;2023-12-29T02:44:42;9.70;99.90
32522;DHT22;18963;51.504;5.316;2023-12-29T02:47:08;9.70;99.90
32522;DHT22;18963;51.504;5.316;2023-12-29T02:49:33;9.70;99.90
32522;DHT22;18963;51.504;5.316;2023-12-29T02:51:59;9.70;99.90
32522;DHT22;18963;51.504;5.316;2023-12-29T02:54:24;9.70;99.90
32522;DHT22;18963;51.504;5.316;2023-12-29T02:56:50;9.70;99.90
32522;DHT22;18963;51.504;5.316;2023-12-29T02:59:15;9.70;99.90
32522;DHT22;18963;51.504;5.316;2023-12-29T03:01:41;9.70;99.90
32522;DHT22;18963;51.504;5.316;2023-12-29T03:04:06;9.70;99.90
32522;DHT22;18963;51.504;5.316;2023-12-29T03:06:32;9.70;99.90
32522;DHT22;18963;51.504;5.316;2023-12-29T03:08:57;9.70;99.90
32522;DHT22;18963;51.504;5.316;2023-12-29T03:11:23;9.70;99.90
32522;DHT22;18963;51.504;5.316;2023-12-29T03:13:48;9.80;99.90
32522;DHT22;18963;51.504;5.316;2023-12-29T03:16:14;9.80;99.90
32522;DHT22;18963;51.504;5.316;2023-12-29T03:18:39;9.70;99.90
32522;DHT22;18963;51.504;5.316;2023-12-29T03:21:06;9.70;99.90
32522;DHT22;18963;51.504;5.316;2023-12-29T03:23:32;9.70;99.90
32522;DHT22;18963;51.504;5.316;2023-12-29T03:25:58;9.80;99.90
32522;DHT22;18963;51.504;5.316;2023-12-29T03:28:23;9.70;99.90
32522;DHT22;18963;51.504;5.316;2023-12-29T03:30:49;9.80;99.90
32522;DHT22;18963;51.504;5.316;2023-12-29T03:33:15;9.80;99.90
32522;DHT22;18963;51.504;5.316;2023-12-29T03:35:40;9.90;99.90
32522;DHT22;18963;51.504;5.316;2023-12-29T03:38:06;9.90;99.90
32522;DHT22;18963;51.504;5.316;2023-12-29T03:40:31;9.90;99.90
32522;DHT22;18963;51.504;5.316;2023-12-29T03:42:57;9.90;99.90
32522;DHT22;18963;51.504;5.316;2023-12-29T03:45:22;9.90;99.90
32522;DHT22;18963;51.504;5.316;2023-12-29T03:47:48;9.90;99.90
32522;DHT22;18963;51.504;5.316;2023-12-29T03:50:13;9.90;99.90
32522;DHT22;18963;51.504;5.316;2023-12-29T03:52:39;9.90;99.90
32522;DHT22;18963;51.504;5.316;2023-12-29T03:55:04;9.90;99.90
32522;DHT22;18963;51.504;5.316;2023-12-29T03:57:30;10.00;99.90
32522;DHT22;18963;51.504;5.316;2023-12-29T03:59:55;9.90;99.90
32522;DHT22;18963;51.504;5.316;2023-12-29T04:02:21;10.00;99.90
32522;DHT22;18963;51.504;5.316;2023-12-29T04:04:46;10.00;99.90
32522;DHT22;18963;51.504;5.316;2023-12-29T04:07:12;9.90;99.90
32522;DHT22;18963;51.504;5.316;2023-12-29T04:09:37;10.00;99.90
32522;DHT22;18963;51.504;5.316;2023-12-29T04:12:03;10.00;99.90
32522;DHT22;18963;51.504;5.316;2023-12-29T04:14:28;10.00;99.90
32522;DHT22;18963;51.504;5.316;2023-12-29T04:16:54;10.00;99.90
32522;DHT22;18963;51.504;5.316;2023-12-29T04:19:19;9.90;99.90
32522;DHT22;18963;51.504;5.316;2023-12-29T04:21:45;9.90;99.90
32522;DHT22;18963;51.504;5.316;2023-12-29T04:24:10;9.90;99.90
32522;DHT22;18963;51.504;5.316;2023-12-29T04:26:36;9.90;99.90
32522;DHT22;18963;51.504;5.316;2023-12-29T04:29:02;9.90;99.90
32522;DHT22;18963;51.504;5.316;2023-12-29T04:31:27;9.90;99.90
32522;DHT22;18963;51.504;5.316;2023-12-29T04:33:53;9.90;99.90
32522;DHT22;18963;51.504;5.316;2023-12-29T04:36:18;9.90;99.90
32522;DHT22;18963;51.504;5.316;2023-12-29T04:38:44;9.80;99.90
32522;DHT22;18963;51.504;5.316;2023-12-29T04:41:11;9.90;99.90
32522;DHT22;18963;51.504;5.316;2023-12-29T04:43:37;9.90;99.90
32522;DHT22;18963;51.504;5.316;2023-12-29T04:46:02;9.90;99.90
32522;DHT22;18963;51.504;5.316;2023-12-29T04:48:28;9.90;99.90
32522;DHT22;18963;51.504;5.316;2023-12-29T04:50:53;9.90;99.90
32522;DHT22;18963;51.504;5.316;2023-12-29T04:53:19;9.80;99.90
32522;DHT22;18963;51.504;5.316;2023-12-29T04:55:44;9.80;99.90
32522;DHT22;18963;51.504;5.316;2023-12-29T04:58:10;9.80;99.90
32522;DHT22;18963;51.504;5.316;2023-12-29T05:00:35;9.80;99.90
32522;DHT22;18963;51.504;5.316;2023-12-29T05:03:01;9.80;99.90
32522;DHT22;18963;51.504;5.316;2023-12-29T05:05:26;9.70;99.90
32522;DHT22;18963;51.504;5.316;2023-12-29T05:07:52;9.70;99.90
32522;DHT22;18963;51.504;5.316;2023-12-29T05:10:17;9.70;99.90
32522;DHT22;18963;51.504;5.316;2023-12-29T05:12:43;9.70;99.90
32522;DHT22;18963;51.504;5.316;2023-12-29T05:15:08;9.70;99.90
32522;DHT22;18963;51.504;5.316;2023-12-29T05:17:34;9.70;99.90
32522;DHT22;18963;51.504;5.316;2023-12-29T05:19:59;9.70;99.90
32522;DHT22;18963;51.504;5.316;2023-12-29T05:22:25;9.60;99.90
32522;DHT22;18963;51.504;5.316;2023-12-29T05:24:50;9.60;99.90
32522;DHT22;18963;51.504;5.316;2023-12-29T05:27:16;9.60;99.90
32522;DHT22;18963;51.504;5.316;2023-12-29T05:29:41;9.60;99.90
32522;DHT22;18963;51.504;5.316;2023-12-29T05:32:07;9.60;99.90
32522;DHT22;18963;51.504;5.316;2023-12-29T05:34:33;9.60;99.90
32522;DHT22;18963;51.504;5.316;2023-12-29T05:36:59;9.50;99.90
32522;DHT22;18963;51.504;5.316;2023-12-29T05:39:24;9.60;99.90
32522;DHT22;18963;51.504;5.316;2023-12-29T05:41:50;9.60;99.90
32522;DHT22;18963;51.504;5.316;2023-12-29T05:44:15;9.50;99.90
32522;DHT22;18963;51.504;5.316;2023-12-29T05:46:41;9.40;99.90
32522;DHT22;18963;51.504;5.316;2023-12-29T05:49:06;9.40;99.90
32522;DHT22;18963;51.504;5.316;2023-12-29T05:51:32;9.40;99.90
32522;DHT22;18963;51.504;5.316;2023-12-29T05:53:57;9.40;99.90
32522;DHT22;18963;51.504;5.316;2023-12-29T05:56:23;9.40;99.90
32522;DHT22;18963;51.504;5.316;2023-12-29T05:58:48;9.40;99.90
32522;DHT22;18963;51.504;5.316;2023-12-29T06:01:14;9.40;99.90
32522;DHT22;18963;51.504;5.316;2023-12-29T06:03:39;9.50;99.90
32522;DHT22;18963;51.504;5.316;2023-12-29T06:06:05;9.50;99.90
32522;DHT22;18963;51.504;5.316;2023-12-29T06:08:30;9.50;99.90
32522;DHT22;18963;51.504;5.316;2023-12-29T06:10:56;9.40;99.90
32522;DHT22;18963;51.504;5.316;2023-12-29T06:13:22;9.40;99.90
32522;DHT22;18963;51.504;5.316;2023-12-29T06:15:47;9.40;99.90
32522;DHT22;18963;51.504;5.316;2023-12-29T06:18:13;9.40;99.90
32522;DHT22;18963;51.504;5.316;2023-12-29T06:20:38;9.40;99.90
32522;DHT22;18963;51.504;5.316;2023-12-29T06:23:04;9.40;99.90
32522;DHT22;18963;51.504;5.316;2023-12-29T06:25:29;9.40;99.90
32522;DHT22;18963;51.504;5.316;2023-12-29T06:27:55;9.40;99.90
32522;DHT22;18963;51.504;5.316;2023-12-29T06:30:20;9.40;99.90
32522;DHT22;18963;51.504;5.316;2023-12-29T06:32:46;9.40;99.90
32522;DHT22;18963;51.504;5.316;2023-12-29T06:35:11;9.50;99.90
32522;DHT22;18963;51.504;5.316;2023-12-29T06:37:37;9.40;99.90
32522;DHT22;18963;51.504;5.316;2023-12-29T06:40:05;9.40;99.90
32522;DHT22;18963;51.504;5.316;2023-12-29T06:42:31;9.50;99.90
32522;DHT22;18963;51.504;5.316;2023-12-29T06:44:56;9.50;99.90
32522;DHT22;18963;51.504;5.316;2023-12-29T06:47:22;9.50;99.90
32522;DHT22;18963;51.504;5.316;2023-12-29T06:49:47;9.60;99.90
32522;DHT22;18963;51.504;5.316;2023-12-29T06:52:13;9.60;99.90
32522;DHT22;18963;51.504;5.316;2023-12-29T06:54:38;9.60;99.90
32522;DHT22;18963;51.504;5.316;2023-12-29T06:57:04;9.60;99.90
32522;DHT22;18963;51.504;5.316;2023-12-29T06:59:29;9.50;99.90
32522;DHT22;18963;51.504;5.316;2023-12-29T07:01:55;9.50;99.90
32522;DHT22;18963;51.504;5.316;2023-12-29T07:04:20;9.50;99.90
32522;DHT22;18963;51.504;5.316;2023-12-29T07:06:46;9.50;99.90
32522;DHT22;18963;51.504;5.316;2023-12-29T07:09:11;9.50;99.90
32522;DHT22;18963;51.504;5.316;2023-12-29T07:11:37;9.50;99.90
32522;DHT22;18963;51.504;5.316;2023-12-29T07:14:02;9.50;99.90
32522;DHT22;18963;51.504;5.316;2023-12-29T07:16:28;9.50;99.90
32522;DHT22;18963;51.504;5.316;2023-12-29T07:18:53;9.50;99.90
32522;DHT22;18963;51.504;5.316;2023-12-29T07:21:19;9.50;99.90
32522;DHT22;18963;51.504;5.316;2023-12-29T07:23:44;9.50;99.90
32522;DHT22;18963;51.504;5.316;2023-12-29T07:26:10;9.40;99.90
32522;DHT22;18963;51.504;5.316;2023-12-29T07:28:35;9.50;99.90
32522;DHT22;18963;51.504;5.316;2023-12-29T07:31:01;9.50;99.90
32522;DHT22;18963;51.504;5.316;2023-12-29T07:33:27;9.40;99.90
32522;DHT22;18963;51.504;5.316;2023-12-29T07:35:52;9.40;99.90
32522;DHT22;18963;51.504;5.316;2023-12-29T07:38:18;9.40;99.90
32522;DHT22;18963;51.504;5.316;2023-12-29T07:40:43;9.50;99.90
32522;DHT22;18963;51.504;5.316;2023-12-29T07:43:09;9.50;99.90
32522;DHT22;18963;51.504;5.316;2023-12-29T07:45:34;9.60;99.90
32522;DHT22;18963;51.504;5.316;2023-12-29T07:48:02;9.60;99.90
32522;DHT22;18963;51.504;5.316;2023-12-29T07:50:27;9.60;99.90
32522;DHT22;18963;51.504;5.316;2023-12-29T07:52:53;9.60;99.90
32522;DHT22;18963;51.504;5.316;2023-12-29T07:55:18;9.60;99.90
32522;DHT22;18963;51.504;5.316;2023-12-29T07:57:44;9.60;99.90
32522;DHT22;18963;51.504;5.316;2023-12-29T08:00:09;9.60;99.90
32522;DHT22;18963;51.504;5.316;2023-12-29T08:02:35;9.60;99.90
32522;DHT22;18963;51.504;5.316;2023-12-29T08:05:01;9.60;99.90
32522;DHT22;18963;51.504;5.316;2023-12-29T08:07:26;9.60;99.90
32522;DHT22;18963;51.504;5.316;2023-12-29T08:09:52;9.60;99.90
32522;DHT22;18963;51.504;5.316;2023-12-29T08:12:17;9.60;99.90
32522;DHT22;18963;51.504;5.316;2023-12-29T08:14:43;9.70;99.90
32522;DHT22;18963;51.504;5.316;2023-12-29T08:17:08;9.60;99.90
32522;DHT22;18963;51.504;5.316;2023-12-29T08:19:35;9.60;99.90
32522;DHT22;18963;51.504;5.316;2023-12-29T08:22:00;9.70;99.90
32522;DHT22;18963;51.504;5.316;2023-12-29T08:24:26;9.70;99.90
32522;DHT22;18963;51.504;5.316;2023-12-29T08:26:51;9.70;99.90
32522;DHT22;18963;51.504;5.316;2023-12-29T08:29:17;9.70;99.90
32522;DHT22;18963;51.504;5.316;2023-12-29T08:31:44;9.70;99.90
32522;DHT22;18963;51.504;5.316;2023-12-29T08:34:09;9.70;99.90
32522;DHT22;18963;51.504;5.316;2023-12-29T08:36:35;9.70;99.90
32522;DHT22;18963;51.504;5.316;2023-12-29T08:39:01;9.70;99.90
32522;DHT22;18963;51.504;5.316;2023-12-29T08:41:27;9.70;99.90
32522;DHT22;18963;51.504;5.316;2023-12-29T08:43:52;9.70;99.90
32522;DHT22;18963;51.504;5.316;2023-12-29T08:46:18;9.80;99.90
32522;DHT22;18963;51.504;5.316;2023-12-29T08:48:44;9.80;99.90
32522;DHT22;18963;51.504;5.316;2023-12-29T08:51:10;9.80;99.90
32522;DHT22;18963;51.504;5.316;2023-12-29T08:53:35;9.70;99.90
32522;DHT22;18963;51.504;5.316;2023-12-29T08:56:01;9.70;99.90
32522;DHT22;18963;51.504;5.316;2023-12-29T08:58:27;9.70;99.90
32522;DHT22;18963;51.504;5.316;2023-12-29T09:00:53;9.70;99.90
32522;DHT22;18963;51.504;5.316;2023-12-29T09:03:18;9.70;99.90
32522;DHT22;18963;51.504;5.316;2023-12-29T09:05:44;9.70;99.90
32522;DHT22;18963;51.504;5.316;2023-12-29T09:08:09;9.70;99.90
32522;DHT22;18963;51.504;5.316;2023-12-29T09:10:35;9.70;99.90
32522;DHT22;18963;51.504;5.316;2023-12-29T09:13:00;9.60;99.90
32522;DHT22;18963;51.504;5.316;2023-12-29T09:15:26;9.60;99.90
32522;DHT22;18963;51.504;5.316;2023-12-29T09:17:51;9.50;99.90
32522;DHT22;18963;51.504;5.316;2023-12-29T09:20:17;9.50;99.90
32522;DHT22;18963;51.504;5.316;2023-12-29T09:22:42;9.50;99.90
32522;DHT22;18963;51.504;5.316;2023-12-29T09:25:08;9.50;99.90
32522;DHT22;18963;51.504;5.316;2023-12-29T09:27:34;9.50;99.90
32522;DHT22;18963;51.504;5.316;2023-12-29T09:29:59;9.50;99.90
32522;DHT22;18963;51.504;5.316;2023-12-29T09:32:25;9.60;99.90
32522;DHT22;18963;51.504;5.316;2023-12-29T09:34:50;9.60;99.90
32522;DHT22;18963;51.504;5.316;2023-12-29T09:37:17;9.60;99.90
32522;DHT22;18963;51.504;5.316;2023-12-29T09:39:42;9.70;99.90
32522;DHT22;18963;51.504;5.316;2023-12-29T09:42:08;9.70;99.90
32522;DHT22;18963;51.504;5.316;2023-12-29T09:44:39;9.70;99.90
32522;DHT22;18963;51.504;5.316;2023-12-29T09:47:05;9.70;99.90
32522;DHT22;18963;51.504;5.316;2023-12-29T09:49:38;9.70;99.90
32522;DHT22;18963;51.504;5.316;2023-12-29T09:52:05;9.80;99.90
32522;DHT22;18963;51.504;5.316;2023-12-29T09:54:32;9.80;99.90
32522;DHT22;18963;51.504;5.316;2023-12-29T09:56:57;9.90;99.90
32522;DHT22;18963;51.504;5.316;2023-12-29T09:59:23;9.90;99.90
32522;DHT22;18963;51.504;5.316;2023-12-29T10:01:50;10.00;99.90
32522;DHT22;18963;51.504;5.316;2023-12-29T10:04:16;10.00;99.90
32522;DHT22;18963;51.504;5.316;2023-12-29T10:06:43;10.00;99.90
32522;DHT22;18963;51.504;5.316;2023-12-29T10:09:11;10.10;99.90
32522;DHT22;18963;51.504;5.316;2023-12-29T10:11:38;10.10;99.90
32522;DHT22;18963;51.504;5.316;2023-12-29T10:14:08;10.10;99.90
32522;DHT22;18963;51.504;5.316;2023-12-29T10:16:45;10.20;99.90
32522;DHT22;18963;51.504;5.316;2023-12-29T10:21:48;10.20;99.90
32522;DHT22;18963;51.504;5.316;2023-12-29T10:24:16;10.30;99.90
32522;DHT22;18963;51.504;5.316;2023-12-29T10:26:43;10.30;99.90
32522;DHT22;18963;51.504;5.316;2023-12-29T10:29:09;10.30;99.90
32522;DHT22;18963;51.504;5.316;2023-12-29T10:31:35;10.30;99.90
32522;DHT22;18963;51.504;5.316;2023-12-29T10:36:48;10.30;99.90
32522;DHT22;18963;51.504;5.316;2023-12-29T10:39:14;10.40;99.90
32522;DHT22;18963;51.504;5.316;2023-12-29T10:41:40;10.40;99.90
32522;DHT22;18963;51.504;5.316;2023-12-29T10:44:06;10.50;99.90
32522;DHT22;18963;51.504;5.316;2023-12-29T10:46:32;10.50;99.90
32522;DHT22;18963;51.504;5.316;2023-12-29T10:49:10;10.50;99.90
32522;DHT22;18963;51.504;5.316;2023-12-29T10:51:36;10.60;99.90
32522;DHT22;18963;51.504;5.316;2023-12-29T10:54:02;10.60;99.90
32522;DHT22;18963;51.504;5.316;2023-12-29T10:56:29;10.60;99.90
32522;DHT22;18963;51.504;5.316;2023-12-29T11:01:28;10.60;99.90
32522;DHT22;18963;51.504;5.316;2023-12-29T11:03:57;10.60;99.90
32522;DHT22;18963;51.504;5.316;2023-12-29T11:06:24;10.70;99.90
32522;DHT22;18963;51.504;5.316;2023-12-29T11:08:49;10.70;99.90
32522;DHT22;18963;51.504;5.316;2023-12-29T11:11:14;10.70;99.90
32522;DHT22;18963;51.504;5.316;2023-12-29T11:13:40;10.70;99.90
32522;DHT22;18963;51.504;5.316;2023-12-29T11:16:06;10.70;99.90
32522;DHT22;18963;51.504;5.316;2023-12-29T11:18:31;10.70;99.90
32522;DHT22;18963;51.504;5.316;2023-12-29T11:20:57;10.70;99.90
32522;DHT22;18963;51.504;5.316;2023-12-29T11:23:23;10.70;99.90
32522;DHT22;18963;51.504;5.316;2023-12-29T11:25:49;10.70;99.90
32522;DHT22;18963;51.504;5.316;2023-12-29T11:28:15;10.70;99.90
32522;DHT22;18963;51.504;5.316;2023-12-29T11:30:41;10.70;99.90
32522;DHT22;18963;51.504;5.316;2023-12-29T11:33:21;10.70;99.90
32522;DHT22;18963;51.504;5.316;2023-12-29T11:35:56;10.70;99.90
32522;DHT22;18963;51.504;5.316;2023-12-29T11:38:26;10.60;99.90
32522;DHT22;18963;51.504;5.316;2023-12-29T11:41:05;10.50;99.90
32522;DHT22;18963;51.504;5.316;2023-12-29T11:43:30;10.40;99.90
32522;DHT22;18963;51.504;5.316;2023-12-29T11:45:56;10.20;99.90
32522;DHT22;18963;51.504;5.316;2023-12-29T11:54:04;9.80;99.90
32522;DHT22;18963;51.504;5.316;2023-12-29T11:56:30;9.70;99.90
32522;DHT22;18963;51.504;5.316;2023-12-29T11:59:01;9.60;99.90
32522;DHT22;18963;51.504;5.316;2023-12-29T12:01:36;9.50;99.90
32522;DHT22;18963;51.504;5.316;2023-12-29T12:04:02;9.50;99.90
32522;DHT22;18963;51.504;5.316;2023-12-29T12:06:37;9.50;99.90
32522;DHT22;18963;51.504;5.316;2023-12-29T12:09:16;9.40;99.90
32522;DHT22;18963;51.504;5.316;2023-12-29T12:11:43;9.40;99.90
32522;DHT22;18963;51.504;5.316;2023-12-29T12:14:09;9.40;99.90
32522;DHT22;18963;51.504;5.316;2023-12-29T12:16:47;9.40;99.90
32522;DHT22;18963;51.504;5.316;2023-12-29T12:19:13;9.40;99.90
32522;DHT22;18963;51.504;5.316;2023-12-29T12:21:40;9.40;99.90
32522;DHT22;18963;51.504;5.316;2023-12-29T12:24:05;9.40;99.90
32522;DHT22;18963;51.504;5.316;2023-12-29T12:26:31;9.40;99.90
32522;DHT22;18963;51.504;5.316;2023-12-29T12:28:57;9.40;99.90
32522;DHT22;18963;51.504;5.316;2023-12-29T12:31:23;9.40;99.90
32522;DHT22;18963;51.504;5.316;2023-12-29T12:33:54;9.40;99.90
32522;DHT22;18963;51.504;5.316;2023-12-29T12:36:23;9.40;99.90
32522;DHT22;18963;51.504;5.316;2023-12-29T12:38:52;9.40;99.90
32522;DHT22;18963;51.504;5.316;2023-12-29T12:41:18;9.40;99.90
32522;DHT22;18963;51.504;5.316;2023-12-29T12:43:50;9.40;99.90
32522;DHT22;18963;51.504;5.316;2023-12-29T12:46:18;9.40;99.90
32522;DHT22;18963;51.504;5.316;2023-12-29T12:48:47;9.40;99.90
32522;DHT22;18963;51.504;5.316;2023-12-29T12:51:13;9.40;99.90
32522;DHT22;18963;51.504;5.316;2023-12-29T12:53:42;9.40;99.90
32522;DHT22;18963;51.504;5.316;2023-12-29T12:56:09;9.40;99.90
32522;DHT22;18963;51.504;5.316;2023-12-29T12:58:35;9.40;99.90
32522;DHT22;18963;51.504;5.316;2023-12-29T13:01:01;9.40;99.90
32522;DHT22;18963;51.504;5.316;2023-12-29T13:03:27;9.40;99.90
32522;DHT22;18963;51.504;5.316;2023-12-29T13:05:53;9.40;99.90
32522;DHT22;18963;51.504;5.316;2023-12-29T13:08:19;9.50;99.90
32522;DHT22;18963;51.504;5.316;2023-12-29T13:10:45;9.40;99.90
32522;DHT22;18963;51.504;5.316;2023-12-29T13:13:10;9.40;99.90
32522;DHT22;18963;51.504;5.316;2023-12-29T13:15:48;9.40;99.90
32522;DHT22;18963;51.504;5.316;2023-12-29T13:18:14;9.40;99.90
32522;DHT22;18963;51.504;5.316;2023-12-29T13:20:47;9.40;99.90
32522;DHT22;18963;51.504;5.316;2023-12-29T13:23:13;9.50;99.90
32522;DHT22;18963;51.504;5.316;2023-12-29T13:25:39;9.50;99.90
32522;DHT22;18963;51.504;5.316;2023-12-29T13:28:05;9.60;99.90
32522;DHT22;18963;51.504;5.316;2023-12-29T13:30:31;9.60;99.90
32522;DHT22;18963;51.504;5.316;2023-12-29T13:32:57;9.70;99.90
32522;DHT22;18963;51.504;5.316;2023-12-29T13:38:01;9.70;99.90
32522;DHT22;18963;51.504;5.316;2023-12-29T13:40:51;9.80;99.90
32522;DHT22;18963;51.504;5.316;2023-12-29T13:43:26;9.80;99.90
32522;DHT22;18963;51.504;5.316;2023-12-29T13:45:52;9.90;99.90
32522;DHT22;18963;51.504;5.316;2023-12-29T13:48:17;10.00;99.90
32522;DHT22;18963;51.504;5.316;2023-12-29T13:50:46;10.00;99.90
32522;DHT22;18963;51.504;5.316;2023-12-29T13:53:18;10.00;99.90
32522;DHT22;18963;51.504;5.316;2023-12-29T13:55:44;10.00;99.90
32522;DHT22;18963;51.504;5.316;2023-12-29T13:58:09;10.00;99.90
32522;DHT22;18963;51.504;5.316;2023-12-29T14:00:36;10.00;99.90
32522;DHT22;18963;51.504;5.316;2023-12-29T14:03:02;10.00;99.90
32522;DHT22;18963;51.504;5.316;2023-12-29T14:05:31;9.90;99.90
32522;DHT22;18963;51.504;5.316;2023-12-29T14:10:32;10.00;99.90
32522;DHT22;18963;51.504;5.316;2023-12-29T14:13:05;10.00;99.90
32522;DHT22;18963;51.504;5.316;2023-12-29T14:15:35;10.00;99.90
32522;DHT22;18963;51.504;5.316;2023-12-29T14:18:01;10.10;99.90
32522;DHT22;18963;51.504;5.316;2023-12-29T14:20:33;10.10;99.90
32522;DHT22;18963;51.504;5.316;2023-12-29T14:23:06;10.20;99.90
32522;DHT22;18963;51.504;5.316;2023-12-29T14:25:33;10.20;99.90
32522;DHT22;18963;51.504;5.316;2023-12-29T14:28:03;10.20;99.90
32522;DHT22;18963;51.504;5.316;2023-12-29T14:30:38;10.20;99.90
32522;DHT22;18963;51.504;5.316;2023-12-29T14:33:04;10.20;99.90
32522;DHT22;18963;51.504;5.316;2023-12-29T14:35:29;10.20;99.90
32522;DHT22;18963;51.504;5.316;2023-12-29T14:37:55;10.20;99.90
32522;DHT22;18963;51.504;5.316;2023-12-29T14:40:21;10.20;99.90
32522;DHT22;18963;51.504;5.316;2023-12-29T14:42:46;10.20;99.90
32522;DHT22;18963;51.504;5.316;2023-12-29T14:45:12;10.10;99.90
32522;DHT22;18963;51.504;5.316;2023-12-29T14:47:37;10.10;99.90
32522;DHT22;18963;51.504;5.316;2023-12-29T14:50:03;10.10;99.90
32522;DHT22;18963;51.504;5.316;2023-12-29T14:52:29;10.00;99.90
32522;DHT22;18963;51.504;5.316;2023-12-29T14:54:54;10.00;99.90
32522;DHT22;18963;51.504;5.316;2023-12-29T14:57:19;9.90;99.90
32522;DHT22;18963;51.504;5.316;2023-12-29T14:59:45;9.90;99.90
32522;DHT22;18963;51.504;5.316;2023-12-29T15:02:10;9.90;99.90
32522;DHT22;18963;51.504;5.316;2023-12-29T15:04:36;9.80;99.90
32522;DHT22;18963;51.504;5.316;2023-12-29T15:07:02;9.70;99.90
32522;DHT22;18963;51.504;5.316;2023-12-29T15:09:28;9.50;99.90
32522;DHT22;18963;51.504;5.316;2023-12-29T15:11:53;9.40;99.90
32522;DHT22;18963;51.504;5.316;2023-12-29T15:14:19;9.30;99.90
32522;DHT22;18963;51.504;5.316;2023-12-29T15:16:45;9.30;99.90
32522;DHT22;18963;51.504;5.316;2023-12-29T15:19:11;9.30;99.90
32522;DHT22;18963;51.504;5.316;2023-12-29T15:21:40;9.30;99.90
32522;DHT22;18963;51.504;5.316;2023-12-29T15:24:05;9.30;99.90
32522;DHT22;18963;51.504;5.316;2023-12-29T15:26:31;9.30;99.90
32522;DHT22;18963;51.504;5.316;2023-12-29T15:28:56;9.30;99.90
32522;DHT22;18963;51.504;5.316;2023-12-29T15:31:24;9.40;99.90
32522;DHT22;18963;51.504;5.316;2023-12-29T15:33:50;9.40;99.90
32522;DHT22;18963;51.504;5.316;2023-12-29T15:36:16;9.40;99.90
32522;DHT22;18963;51.504;5.316;2023-12-29T15:38:48;9.50;99.90
32522;DHT22;18963;51.504;5.316;2023-12-29T15:41:13;9.50;99.90
32522;DHT22;18963;51.504;5.316;2023-12-29T15:43:39;9.50;99.90
32522;DHT22;18963;51.504;5.316;2023-12-29T15:46:14;9.50;99.90
32522;DHT22;18963;51.504;5.316;2023-12-29T15:48:40;9.60;99.90
32522;DHT22;18963;51.504;5.316;2023-12-29T15:51:09;9.60;99.90
32522;DHT22;18963;51.504;5.316;2023-12-29T15:53:34;9.60;99.90
32522;DHT22;18963;51.504;5.316;2023-12-29T15:56:00;9.60;99.90
32522;DHT22;18963;51.504;5.316;2023-12-29T15:58:29;9.60;99.90
32522;DHT22;18963;51.504;5.316;2023-12-29T16:00:54;9.60;99.90